F/V Le Natif 2 — FKVW — position and weather

sailwx.info

Track history (hours):
 
Tides and Currents Weather Stations Pressure Air Temp Water Temp Dewpoint Dewpoint Depression Visibility Wind Speed Wind Dir Waves Ship Positions

F/V Le Natif 2

Last reported at 2014-Sep-30 22:19 UTC. Time now 2014-Oct-01 00:03 UTC.
Position N 46°32' W 002°23'.

Length 16 m.

Type: Fishing. MMSI: 228131600.

Date/timePositionNaut miles runAvg speedWind from/ knotsBaromVisibWave heightAir tempDewpointWater temp
2014-Sep-30 22:19N 46°32' W 002°23'6 7.5
2014-Sep-30 21:31N 46°28' W 002°16'7 7.4
2014-Sep-30 20:34N 46°23' W 002°08'7 7.3
2014-Sep-30 19:34N 46°19' W 002°00'7 7.2
2014-Sep-30 18:34N 46°14' W 001°53'16 5.3
2014-Sep-30 15:30N 46°22' W 002°13'8 8.3
2014-Sep-30 14:33N 46°29' W 002°18'8 3.6
2014-Sep-30 12:26N 46°36' W 002°16'7 8.3
2014-Sep-30 11:34N 46°29' W 002°14'7 7.0
2014-Sep-30 10:33N 46°23' W 002°10'8 8.4
2014-Sep-30 09:33N 46°18' W 002°00'13 3.7
2014-Sep-30 06:08N 46°29' W 002°08'5 8.3
2014-Sep-30 05:33N 46°33' W 002°05'8 8.4
2014-Sep-30 04:34N 46°40' W 001°58'2 0.1
2014-Sep-29 14:32N 46°42' W 001°56'0 0.0
2014-Sep-29 13:33N 46°42' W 001°56'7 6.9
2014-Sep-29 12:33N 46°36' W 002°03'8 8.0
2014-Sep-29 11:33N 46°29' W 002°09'8 7.5
2014-Sep-29 10:33N 46°23' W 002°14'1 1.3
2014-Sep-29 09:32N 46°22' W 002°14'0 0.4
2014-Sep-29 08:33N 46°22' W 002°14'1 0.8
2014-Sep-29 07:08N 46°23' W 002°14'5 6.1
2014-Sep-29 06:21N 46°27' W 002°10'7 8.3
2014-Sep-29 05:33N 46°33' W 002°05'8 8.2
2014-Sep-29 04:33N 46°40' W 001°59'3 0.2
2014-Sep-28 14:33N 46°42' W 001°56'0 0.0
2014-Sep-28 13:33N 46°42' W 001°56'2 1.7
2014-Sep-28 12:33N 46°41' W 001°59'3 2.5
2014-Sep-28 11:33N 46°38' W 001°60'7 7.2
2014-Sep-28 10:33N 46°32' W 002°05'7 7.2
2014-Sep-28 09:33N 46°26' W 002°10'2 2.2
2014-Sep-28 08:33N 46°24' W 002°11'1 0.6
2014-Sep-28 07:33N 46°24' W 002°12'6 4.9
2014-Sep-28 06:24N 46°29' W 002°12'7 8.1
2014-Sep-28 05:33N 46°34' W 002°05'8 7.9
2014-Sep-28 04:33N 46°40' W 001°58'  
2014-Sep-25 04:18N 46°42' W 001°56'0 0.1
2014-Sep-25 03:33N 46°42' W 001°57'8 7.5
2014-Sep-25 02:33N 46°34' W 001°57'2 2.2
2014-Sep-25 01:33N 46°32' W 001°56'3 3.5
2014-Sep-25 00:33N 46°35' W 001°60'2 2.0
2014-Sep-24 23:33N 46°34' W 001°57'3 2.8
2014-Sep-24 22:33N 46°32' W 001°55'2 1.7
2014-Sep-24 21:33N 46°30' W 001°53'3 2.8
2014-Sep-24 20:33N 46°33' W 001°55'3 2.9
2014-Sep-24 19:33N 46°30' W 001°53'4 3.7
2014-Sep-24 18:33N 46°33' W 001°57'4 4.0
2014-Sep-24 17:33N 46°36' W 002°00'6 6.2
2014-Sep-24 16:33N 46°42' W 001°57'0 0.1
2014-Sep-24 15:33N 46°42' W 001°56'4 4.5
2014-Sep-24 14:33N 46°37' W 001°58'9 8.9
2014-Sep-24 13:33N 46°28' W 001°58'9 9.2
2014-Sep-24 12:33N 46°19' W 001°59'6 0.9
2014-Sep-24 06:24N 46°20' W 002°07'7 8.6
2014-Sep-24 05:33N 46°28' W 002°09'9 8.7
2014-Sep-24 04:33N 46°35' W 002°02'8 7.8
2014-Sep-24 03:33N 46°42' W 001°57'0 0.0
2014-Sep-23 14:29N 46°42' W 001°57'0 0.1
2014-Sep-23 13:33N 46°42' W 001°56'2 2.2
2014-Sep-23 12:33N 46°40' W 001°58'9 9.1
2014-Sep-23 11:33N 46°31' W 002°01'8 8.3
2014-Sep-23 10:33N 46°23' W 002°04'6 4.2
2014-Sep-23 09:09N 46°17' W 002°05'1 1.5
2014-Sep-23 08:22N 46°16' W 002°06'3 2.8
2014-Sep-23 07:24N 46°19' W 002°05'7 7.9
2014-Sep-23 06:28N 46°25' W 002°11'4 4.9
2014-Sep-23 05:33N 46°29' W 002°07'8 8.1
2014-Sep-23 04:33N 46°36' W 002°02'7 6.9
2014-Sep-23 03:33N 46°42' W 001°57'0 0.0
2014-Sep-22 14:08N 46°42' W 001°57'0 0.0
2014-Sep-22 13:33N 46°42' W 001°57'0 0.1
2014-Sep-22 12:34N 46°42' W 001°56'1 1.1
2014-Sep-22 11:33N 46°41' W 001°58'8 8.1
2014-Sep-22 10:33N 46°34' W 002°03'7 6.5
2014-Sep-22 09:33N 46°29' W 002°09'2 2.3
2014-Sep-22 08:33N 46°28' W 002°12'1 1.0
2014-Sep-22 07:33N 46°28' W 002°11'3 2.5
2014-Sep-22 06:33N 46°29' W 002°07'0 0.2
2014-Sep-22 05:33N 46°29' W 002°08'7 7.4
2014-Sep-22 04:33N 46°35' W 002°02'8 7.7
2014-Sep-22 03:33N 46°42' W 001°57'0 0.0
2014-Sep-21 13:33N 46°42' W 001°56'0 0.0
2014-Sep-21 12:32N 46°42' W 001°56'4 4.3
2014-Sep-21 11:33N 46°38' W 001°59'8 8.3
2014-Sep-21 10:33N 46°30' W 002°04'6 6.0
2014-Sep-21 09:33N 46°25' W 002°08'0 0.3
2014-Sep-21 08:33N 46°25' W 002°09'0 0.4
2014-Sep-21 07:33N 46°25' W 002°09'1 1.0
2014-Sep-21 06:25N 46°25' W 002°07'6 6.6
2014-Sep-21 05:33N 46°30' W 002°03'8 8.5
2014-Sep-21 04:33N 46°38' W 001°59'4 3.9
2014-Sep-21 03:33N 46°42' W 001°56'  
Track history (hours):
 
Tides and Currents Weather Stations Pressure Air Temp Water Temp Dewpoint Dewpoint Depression Visibility Wind Speed Wind Dir Waves Ship Positions

F/V Le Natif 2

Last reported at 2014-Sep-30 22:19 UTC. Time now 2014-Oct-01 00:03 UTC.
Position N 46°32' W 002°23'.

Length 16 m.

Type: Fishing. MMSI: 228131600.

Date/timePositionNaut miles runAvg speedWind from/ knotsBaromVisibWave heightAir tempDewpointWater temp
2014-Sep-30 22:19N 46°32' W 002°23'6 7.5
2014-Sep-30 21:31N 46°28' W 002°16'7 7.4
2014-Sep-30 20:34N 46°23' W 002°08'7 7.3
2014-Sep-30 19:34N 46°19' W 002°00'7 7.2
2014-Sep-30 18:34N 46°14' W 001°53'16 5.3
2014-Sep-30 15:30N 46°22' W 002°13'8 8.3
2014-Sep-30 14:33N 46°29' W 002°18'8 3.6
2014-Sep-30 12:26N 46°36' W 002°16'7 8.3
2014-Sep-30 11:34N 46°29' W 002°14'7 7.0
2014-Sep-30 10:33N 46°23' W 002°10'8 8.4
2014-Sep-30 09:33N 46°18' W 002°00'13 3.7
2014-Sep-30 06:08N 46°29' W 002°08'5 8.3
2014-Sep-30 05:33N 46°33' W 002°05'8 8.4
2014-Sep-30 04:34N 46°40' W 001°58'2 0.1
2014-Sep-29 14:32N 46°42' W 001°56'0 0.0
2014-Sep-29 13:33N 46°42' W 001°56'7 6.9
2014-Sep-29 12:33N 46°36' W 002°03'8 8.0
2014-Sep-29 11:33N 46°29' W 002°09'8 7.5
2014-Sep-29 10:33N 46°23' W 002°14'1 1.3
2014-Sep-29 09:32N 46°22' W 002°14'0 0.4
2014-Sep-29 08:33N 46°22' W 002°14'1 0.8
2014-Sep-29 07:08N 46°23' W 002°14'5 6.1
2014-Sep-29 06:21N 46°27' W 002°10'7 8.3
2014-Sep-29 05:33N 46°33' W 002°05'8 8.2
2014-Sep-29 04:33N 46°40' W 001°59'3 0.2
2014-Sep-28 14:33N 46°42' W 001°56'0 0.0
2014-Sep-28 13:33N 46°42' W 001°56'2 1.7
2014-Sep-28 12:33N 46°41' W 001°59'3 2.5
2014-Sep-28 11:33N 46°38' W 001°60'7 7.2
2014-Sep-28 10:33N 46°32' W 002°05'7 7.2
2014-Sep-28 09:33N 46°26' W 002°10'2 2.2
2014-Sep-28 08:33N 46°24' W 002°11'1 0.6
2014-Sep-28 07:33N 46°24' W 002°12'6 4.9
2014-Sep-28 06:24N 46°29' W 002°12'7 8.1
2014-Sep-28 05:33N 46°34' W 002°05'8 7.9
2014-Sep-28 04:33N 46°40' W 001°58'  
2014-Sep-25 04:18N 46°42' W 001°56'0 0.1
2014-Sep-25 03:33N 46°42' W 001°57'8 7.5
2014-Sep-25 02:33N 46°34' W 001°57'2 2.2
2014-Sep-25 01:33N 46°32' W 001°56'3 3.5
2014-Sep-25 00:33N 46°35' W 001°60'2 2.0
2014-Sep-24 23:33N 46°34' W 001°57'3 2.8
2014-Sep-24 22:33N 46°32' W 001°55'2 1.7
2014-Sep-24 21:33N 46°30' W 001°53'3 2.8
2014-Sep-24 20:33N 46°33' W 001°55'3 2.9
2014-Sep-24 19:33N 46°30' W 001°53'4 3.7
2014-Sep-24 18:33N 46°33' W 001°57'4 4.0
2014-Sep-24 17:33N 46°36' W 002°00'6 6.2
2014-Sep-24 16:33N 46°42' W 001°57'0 0.1
2014-Sep-24 15:33N 46°42' W 001°56'4 4.5
2014-Sep-24 14:33N 46°37' W 001°58'9 8.9
2014-Sep-24 13:33N 46°28' W 001°58'9 9.2
2014-Sep-24 12:33N 46°19' W 001°59'6 0.9
2014-Sep-24 06:24N 46°20' W 002°07'7 8.6
2014-Sep-24 05:33N 46°28' W 002°09'9 8.7
2014-Sep-24 04:33N 46°35' W 002°02'8 7.8
2014-Sep-24 03:33N 46°42' W 001°57'0 0.0
2014-Sep-23 14:29N 46°42' W 001°57'0 0.1
2014-Sep-23 13:33N 46°42' W 001°56'2 2.2
2014-Sep-23 12:33N 46°40' W 001°58'9 9.1
2014-Sep-23 11:33N 46°31' W 002°01'8 8.3
2014-Sep-23 10:33N 46°23' W 002°04'6 4.2
2014-Sep-23 09:09N 46°17' W 002°05'1 1.5
2014-Sep-23 08:22N 46°16' W 002°06'3 2.8
2014-Sep-23 07:24N 46°19' W 002°05'7 7.9
2014-Sep-23 06:28N 46°25' W 002°11'4 4.9
2014-Sep-23 05:33N 46°29' W 002°07'8 8.1
2014-Sep-23 04:33N 46°36' W 002°02'7 6.9
2014-Sep-23 03:33N 46°42' W 001°57'0 0.0
2014-Sep-22 14:08N 46°42' W 001°57'0 0.0
2014-Sep-22 13:33N 46°42' W 001°57'0 0.1
2014-Sep-22 12:34N 46°42' W 001°56'1 1.1
2014-Sep-22 11:33N 46°41' W 001°58'8 8.1
2014-Sep-22 10:33N 46°34' W 002°03'7 6.5
2014-Sep-22 09:33N 46°29' W 002°09'2 2.3
2014-Sep-22 08:33N 46°28' W 002°12'1 1.0
2014-Sep-22 07:33N 46°28' W 002°11'3 2.5
2014-Sep-22 06:33N 46°29' W 002°07'0 0.2
2014-Sep-22 05:33N 46°29' W 002°08'7 7.4
2014-Sep-22 04:33N 46°35' W 002°02'8 7.7
2014-Sep-22 03:33N 46°42' W 001°57'0 0.0
2014-Sep-21 13:33N 46°42' W 001°56'0 0.0
2014-Sep-21 12:32N 46°42' W 001°56'4 4.3
2014-Sep-21 11:33N 46°38' W 001°59'8 8.3
2014-Sep-21 10:33N 46°30' W 002°04'6 6.0
2014-Sep-21 09:33N 46°25' W 002°08'0 0.3
2014-Sep-21 08:33N 46°25' W 002°09'0 0.4
2014-Sep-21 07:33N 46°25' W 002°09'1 1.0
2014-Sep-21 06:25N 46°25' W 002°07'6 6.6
2014-Sep-21 05:33N 46°30' W 002°03'8 8.5
2014-Sep-21 04:33N 46°38' W 001°59'4 3.9
2014-Sep-21 03:33N 46°42' W 001°56'  

Dump ship's entire track history